Tiempo atmosférico en la estación meteorológica de Castello d?Empuries, Girona (4 m.)



Fecha
DESCASC
Temp. máxima en grados centígrados (hora)
DESCASC
Temp. mínima en grados centígrados (hora)
DESCASC
Temp. media en grados centígrados
DESCASC
Racha de viento máxima en m/sg (hora)
DESCASC
Velocidad máxima media en intervalos de 10 minutos(hora)
DESCASC
Precipitaciones diarias en mm
DESCASC
Precipitaciones de 00:00 a 06:00 en mm
DESCASC
Precipitaciones de 06:00 a 12:00 en mm
DESCASC
Precipitaciones de 12:00 a 18:00 en mm
DESCASC
Precipitaciones de 18:00 a 24:00 en mm
DESCASC

Gráficas

Temp. máximas Temp. mínimas Temp. medias Precipitaciones Rachas de viento máximas Velocidades máximas media en intervalos de 10 minutos

Datos horarios

Fecha y hora oficial Temperatura (ºC) Velocidad del viento (km/h) Dirección del viento Racha (km/h) Dirección de racha Precipitación (mm) Presión (hPa) Tendencia (hPa) Humedad (%)
2018-05-23 23:00:00 18.9 0 Calma 6 Sudeste 0 -- -- 90
2018-05-23 22:00:00 19.3 0 Calma 6 Oeste 0 -- -- 87
2018-05-23 21:00:00 20.2 0 Calma 7 Norte 0 -- -- 83
2018-05-23 20:00:00 21.5 3 Oeste 10 Norte 0 -- -- 74
2018-05-23 19:00:00 20.9 8 Noroeste 14 Noroeste 0 -- -- 83
2018-05-23 18:00:00 20.2 5 Este 23 Sudeste 0 -- -- 89
2018-05-23 17:00:00 20.3 9 Este 20 Este 0 -- -- 89
2018-05-23 16:00:00 21.3 9 Este 27 Sudeste 0 -- -- 84
2018-05-23 15:00:00 24 13 Sudeste 28 Sudeste 0 -- -- 68
2018-05-23 14:00:00 24.3 9 Sudeste 26 Sudeste 0 -- -- 65
2018-05-23 13:00:00 23.9 13 Sudeste 23 Este 0 -- -- 64
2018-05-23 12:00:00 23.3 9 Sudeste 21 Sudeste 0 -- -- 72
2018-05-23 11:00:00 22.6 8 Este 16 Sudeste 0 -- -- 70
2018-05-23 10:00:00 20.3 0 Calma 10 Oeste 0 -- -- 70
2018-05-23 09:00:00 17.4 4 Oeste 9 Oeste 0 -- -- 86
2018-05-23 08:00:00 14.2 0 Calma 7 Oeste 0 -- -- 100
2018-05-23 07:00:00 11.8 0 Calma 5 Sudoeste 0 -- -- 100
2018-05-23 06:00:00 12 4 Oeste 6 Oeste 0 -- -- 100
2018-05-23 05:00:00 12.2 3 Oeste 6 Noroeste 0 -- -- 100
2018-05-23 04:00:00 12.6 0 Calma 6 Oeste 0 -- -- 99
2018-05-23 03:00:00 13.4 3 Oeste 7 Oeste 0 -- -- 98
2018-05-23 02:00:00 14.1 3 Oeste 8 Sudoeste 0 -- -- 98
2018-05-23 01:00:00 14.7 3 Oeste 8 Sudoeste 0 -- -- 98
2018-05-23 00:00:00 15 3 Oeste 7 Oeste 0 -- -- 96
2018-05-22 23:00:00 15.7 0 Calma -- -- 0 -- -- 92
2018-05-22 22:00:00 17.1 0 Calma 4 Oeste 0 -- -- 90
2018-05-22 21:00:00 19.5 3 Oeste 5 Oeste 0 -- -- 75
2018-05-22 20:00:00 20.2 3 Sudoeste 9 Sur 0 -- -- 74
2018-05-22 19:00:00 19.9 0 Calma 10 Oeste 0 -- -- 73
2018-05-22 18:00:00 19.3 5 Noroeste 15 Oeste 0 -- -- 79
2018-05-22 17:00:00 19.4 7 Oeste 21 Oeste 0 -- -- 73
2018-05-22 16:00:00 20.7 9 Noroeste 23 Sudeste 0 -- -- 70
2018-05-22 15:00:00 22.7 11 Sudeste 28 Sudeste 0 -- -- 71
2018-05-22 14:00:00 23.2 12 Sudeste 25 Este 0 -- -- 72
2018-05-22 13:00:00 20.9 12 Este 26 Este 0 -- -- 80
2018-05-22 12:00:00 23.6 5 Este 10 Sudoeste 0 -- -- 64
2018-05-22 11:00:00 21.5 4 Noroeste 13 Oeste 0 -- -- 70
2018-05-22 10:00:00 20.3 4 Oeste 12 Oeste 0 -- -- 79
2018-05-22 09:00:00 17.1 4 Sudoeste 9 Oeste 0 -- -- 94
2018-05-22 08:00:00 13.5 5 Oeste 12 Oeste 0 -- -- 99
2018-05-22 07:00:00 13.3 5 Sudoeste 10 Oeste 0 -- -- 100
2018-05-22 06:00:00 14.3 4 Sur 10 Sur 0 -- -- 100
2018-05-22 05:00:00 13.9 3 Norte 9 Noroeste 0 -- -- 99
2018-05-22 04:00:00 14.3 5 Noroeste 12 Noroeste 0 -- -- 100
2018-05-22 03:00:00 15.1 4 Noroeste 9 Norte 0 -- -- 100
2018-05-22 02:00:00 15.3 0 Calma -- -- 0 -- -- 98
2018-05-22 01:00:00 16 0 Calma 4 Sur 0 -- -- 99
2018-05-22 00:00:00 16.5 4 Sudeste 5 Sudeste 0 -- -- 98
2018-05-21 23:00:00 17.1 0 Calma 4 Sur 0 -- -- 96
2018-05-21 22:00:00 17.6 0 Calma 8 Sudeste 0 -- -- 93
2018-05-21 21:00:00 19.2 3 Sudeste 8 Sudeste 0 -- -- 86
2018-05-21 20:00:00 20.5 6 Sudeste 15 Este 0 -- -- 80
2018-05-21 19:00:00 20.6 6 Sudeste 21 Sudeste 0 -- -- 81
2018-05-21 18:00:00 22.1 9 Este 23 Sudeste 0 -- -- 75
2018-05-21 17:00:00 21.4 9 Sudeste 21 Sudeste 0 -- -- 74
2018-05-21 16:00:00 21.9 7 Sudeste 17 Este 0 -- -- 72
2018-05-21 15:00:00 23.2 7 Sudeste 12 Sudeste 0 -- -- 62
2018-05-21 14:00:00 22.9 5 Sudeste 10 Sudeste 0 -- -- 64
2018-05-21 13:00:00 22.2 6 Sudeste 13 Este 0 -- -- 66
2018-05-21 12:00:00 21.7 4 Este 11 Este 0 -- -- 61
2018-05-21 11:00:00 21 5 Este 12 Este 0 -- -- 62
2018-05-21 10:00:00 18.7 4 Noroeste 13 Oeste 0 -- -- 74
2018-05-21 09:00:00 16.2 5 Noroeste 9 Noroeste 0 -- -- 93
2018-05-21 08:00:00 13.6 3 Oeste 7 Sudoeste 0 -- -- 98
2018-05-21 07:00:00 11.2 4 Oeste 8 Sudoeste 0 -- -- 100
2018-05-21 06:00:00 10.9 5 Sudoeste 9 Sudoeste 0 -- -- 100
2018-05-21 05:00:00 11.2 3 Sudoeste 6 Oeste 0 -- -- 99
2018-05-21 04:00:00 11.9 2 Sudoeste 8 Oeste 0 -- -- 98
2018-05-21 03:00:00 12.6 0 Calma 8 Oeste 0 -- -- 98
2018-05-21 02:00:00 13.5 4 Oeste 6 Oeste 0 -- -- 98
2018-05-21 01:00:00 14.4 0 Calma 4 Noroeste 0 -- -- 98
2018-05-21 00:00:00 15.2 3 Noroeste 5 Noroeste 0 -- -- 98
2018-05-20 23:00:00 16 0 Calma 9 Este 0 -- -- 97
2018-05-20 22:00:00 16.6 4 Sudeste 13 Sudeste 0 -- -- 94
2018-05-20 21:00:00 18 5 Sudeste 15 Sudeste 0 -- -- 86
2018-05-20 20:00:00 20.4 7 Sudeste 16 Sudeste 0 -- -- 69
2018-05-20 19:00:00 21.9 9 Sudeste 26 Sudeste 0 -- -- 65
2018-05-20 18:00:00 22.7 10 Sudeste 23 Este 0 -- -- 62
2018-05-20 17:00:00 23.3 10 Este 22 Sudeste 0 -- -- 66
2018-05-20 16:00:00 24.2 11 Este 29 Este 0 -- -- 56
2018-05-20 15:00:00 24.1 14 Este 24 Este 0 -- -- 52
2018-05-20 14:00:00 24.1 13 Nordeste 29 Nordeste 0 -- -- 52
2018-05-20 13:00:00 24 14 Nordeste 30 Norte 0 -- -- 53
2018-05-20 12:00:00 23.4 15 Norte 27 Nordeste 0 -- -- 53
2018-05-20 11:00:00 23.2 13 Nordeste 22 Nordeste 0 -- -- 53
2018-05-20 10:00:00 20.7 4 Norte 9 Noroeste 0 -- -- 71
2018-05-20 09:00:00 16.8 4 Sudoeste 11 Sudoeste 0 -- -- 83
2018-05-20 08:00:00 13.7 0 Calma 11 Oeste 0 -- -- 92
2018-05-20 07:00:00 11.5 0 Calma 14 Sudoeste 0 -- -- 99
2018-05-20 06:00:00 11.8 6 Sudoeste 12 Oeste 0 -- -- 97
2018-05-20 05:00:00 12.3 4 Oeste 8 Oeste 0 -- -- 96
2018-05-20 04:00:00 12.8 5 Sudoeste 10 Sudoeste 0 -- -- 96
2018-05-20 03:00:00 13.6 7 Sudoeste 14 Sudoeste 0 -- -- 94
2018-05-20 02:00:00 14.5 5 Oeste 11 Sudoeste 0 -- -- 92
2018-05-20 01:00:00 15 2 Noroeste 12 Oeste 0 -- -- 92
2018-05-20 00:00:00 15.6 6 Oeste 10 Sudoeste 0 -- -- 92
2018-05-19 23:00:00 16.3 5 Oeste 10 Oeste 0 -- -- 91
2018-05-19 22:00:00 17.4 3 Sudoeste 10 Oeste 0 -- -- 88
2018-05-19 21:00:00 19 4 Sudoeste 6 Sudoeste 0 -- -- 83
2018-05-19 20:00:00 20.3 3 Oeste 12 Noroeste 0 -- -- 76
2018-05-19 19:00:00 19.2 5 Oeste 17 Noroeste 0 -- -- 77
2018-05-19 18:00:00 19 8 Oeste 26 Oeste 0 -- -- 74
2018-05-19 17:00:00 21.3 7 Sudoeste 19 Sudeste 0 -- -- 64
2018-05-19 16:00:00 23.8 14 Sudeste 27 Sudeste 0 -- -- 61
2018-05-19 15:00:00 24.2 14 Sudeste 27 Sudeste 0 -- -- 63
2018-05-19 14:00:00 24.7 13 Sudeste 23 Sudeste 0 -- -- 65
2018-05-19 13:00:00 24.4 14 Sudeste 21 Sudeste 0 -- -- 64
2018-05-19 12:00:00 24.7 10 Sudeste 17 Sudeste 0 -- -- 57
2018-05-19 11:00:00 23.8 5 Sudeste 11 Sudeste 0 -- -- 63
2018-05-19 10:00:00 20.4 2 Nordeste 8 Sur 0 -- -- 71
2018-05-19 09:00:00 16.7 4 Sudoeste 11 Oeste 0 -- -- 82
2018-05-19 08:00:00 13.3 4 Sudoeste 8 Sudoeste 0 -- -- 96
2018-05-19 07:00:00 10.9 0 Calma 9 Nordeste 0 -- -- 100
2018-05-19 06:00:00 11 2 Oeste 7 Oeste 0 -- -- 100
2018-05-19 05:00:00 11.4 4 Oeste 6 Oeste 0 -- -- 100
2018-05-19 04:00:00 12 2 Noroeste 7 Oeste 0 -- -- 99
2018-05-19 03:00:00 12.6 4 Oeste 8 Oeste 0 -- -- 100
2018-05-19 02:00:00 12.9 2 Noroeste 6 Noroeste 0 -- -- 99
2018-05-19 01:00:00 13.3 0 Calma -- -- 0 -- -- 98
2018-05-19 00:00:00 14.1 0 Calma -- -- 0 -- -- 97
2018-05-18 23:00:00 15 0 Calma -- -- 0 -- -- 94
2018-05-18 22:00:00 16.1 0 Calma -- -- 0 -- -- 90
2018-05-18 21:00:00 17.7 0 Calma 9 Sudeste 0 -- -- 85
2018-05-18 20:00:00 19.1 6 Sudeste 15 Sudeste 0 -- -- 76
2018-05-18 19:00:00 20.7 9 Sudeste 19 Sudeste 0 -- -- 72
2018-05-18 18:00:00 21.9 11 Sudeste 24 Sudeste 0 -- -- 66
2018-05-18 17:00:00 22.5 14 Sudeste 26 Sudeste 0 -- -- 68
2018-05-18 16:00:00 23.1 9 Este 21 Este 0 -- -- 66
2018-05-18 15:00:00 23.9 10 Este 24 Este 0 -- -- 62
2018-05-18 14:00:00 23.8 11 Este 21 Este 0 -- -- 62
2018-05-18 13:00:00 23.1 12 Sudeste 20 Sudeste 0 -- -- 72
2018-05-18 12:00:00 22.7 10 Sudeste 17 Sudeste 0 -- -- 68
2018-05-18 11:00:00 21.8 7 Sudeste 11 Este 0 -- -- 69
2018-05-18 10:00:00 18.7 4 Este 9 Este 0 -- -- 81
2018-05-18 09:00:00 14.7 0 Calma 7 Sudoeste 0 -- -- 93
2018-05-18 08:00:00 11.5 3 Oeste 8 Sudoeste 0 -- -- 97
2018-05-18 07:00:00 10.2 5 Oeste 9 Oeste 0 -- -- 100
2018-05-18 06:00:00 10.2 0 Calma 5 Oeste 0 -- -- 100
2018-05-18 05:00:00 10.7 0 Calma 6 Sudoeste 0 -- -- 99
2018-05-18 04:00:00 11.2 4 Oeste 8 Oeste 0 -- -- 98
2018-05-18 03:00:00 11.7 3 Noroeste 6 Oeste 0 -- -- 97
2018-05-18 02:00:00 12.2 3 Oeste 8 Sudoeste 0 -- -- 96
2018-05-18 01:00:00 12.9 4 Oeste 9 Noroeste 0 -- -- 94
2018-05-18 00:00:00 13.5 5 Noroeste 8 Noroeste 0 -- -- 93
2018-05-17 23:00:00 14.3 4 Oeste 7 Oeste 0 -- -- 92
2018-05-17 22:00:00 15.3 0 Calma 10 Este 0 -- -- 91
2018-05-17 21:00:00 16.6 3 Sudeste 16 Sudeste 0 -- -- 84
2018-05-17 20:00:00 17.9 9 Sudeste 24 Sudeste 0 -- -- 75
2018-05-17 19:00:00 20 10 Sur 27 Sudeste 0 -- -- 67
2018-05-17 18:00:00 20.4 10 Sudeste 25 Norte 0 -- -- 72
2018-05-17 17:00:00 23.8 16 Nordeste 28 Nordeste 0 -- -- 53
2018-05-17 16:00:00 23.5 14 Nordeste 31 Nordeste 0 -- -- 56
2018-05-17 15:00:00 23 17 Nordeste 38 Nordeste 0 -- -- 50
2018-05-17 14:00:00 23 17 Nordeste 33 Nordeste 0 -- -- 58
2018-05-17 13:00:00 23.1 12 Norte 28 Norte 0 -- -- 58
2018-05-17 12:00:00 22 12 Norte 22 Norte 0 -- -- 58
2018-05-17 11:00:00 19.4 0 Calma 8 Este 0 -- -- 74
2018-05-17 10:00:00 17.8 0 Calma 12 Oeste 0 -- -- 78
2018-05-17 09:00:00 16.3 6 Oeste 15 Oeste 0 -- -- 78
2018-05-17 08:00:00 13.2 8 Oeste 13 Oeste 0 -- -- 90
2018-05-17 07:00:00 10.8 0 Calma 8 Sudoeste 0 -- -- 99
2018-05-17 06:00:00 11.4 5 Sudoeste 11 Sudoeste 0 -- -- 97
2018-05-17 05:00:00 11.5 5 Oeste 11 Oeste 0 -- -- 98
2018-05-17 04:00:00 11.6 4 Sudoeste 10 Sudoeste 0 -- -- 99
2018-05-17 03:00:00 11.7 4 Sudoeste 9 Sudoeste 0 -- -- 99
2018-05-17 02:00:00 12.2 4 Sudoeste 12 Sudoeste 0 -- -- 98
2018-05-17 01:00:00 13.1 4 Noroeste 7 Noroeste 0 -- -- 98
2018-05-17 00:00:00 13.8 3 Este 10 Oeste 0 -- -- 97
2018-05-16 23:00:00 14.7 3 Sudoeste 11 Sudeste 0 -- -- 96
2018-05-16 22:00:00 15.5 4 Este 10 Sudeste 0 -- -- 92
2018-05-16 21:00:00 17.5 7 Sudeste 15 Sudeste 0 -- -- 84
2018-05-16 20:00:00 19.7 9 Sudeste 22 Sudeste 0 -- -- 71
2018-05-16 19:00:00 21 13 Sudeste 22 Sudeste 0 -- -- 68
2018-05-16 18:00:00 21.5 12 Sudeste 24 Sudeste 0 -- -- 72
2018-05-16 17:00:00 21.7 14 Sudeste 23 Sudeste 0 -- -- 69
2018-05-16 16:00:00 20.4 13 Sudeste 23 Sudeste 0 -- -- 74
2018-05-16 15:00:00 22.5 10 Sudeste 22 Sudeste 0 -- -- 66
2018-05-16 14:00:00 21.5 7 Oeste 21 Noroeste 0 -- -- 59
2018-05-16 13:00:00 19.9 4 Oeste 18 Noroeste 0 -- -- 61
2018-05-16 12:00:00 20.2 10 Noroeste 28 Noroeste 0 -- -- 59
2018-05-16 11:00:00 20 6 Oeste 16 Noroeste 0 -- -- 60
2018-05-16 10:00:00 18.2 7 Sudoeste 20 Oeste 0 -- -- 69
2018-05-16 09:00:00 17.3 6 Sudoeste 14 Oeste 0 -- -- 71
2018-05-16 08:00:00 16 5 Oeste 27 Noroeste 0 -- -- 67
2018-05-16 07:00:00 12.7 8 Noroeste 16 Noroeste 0 -- -- 86
2018-05-16 06:00:00 11 4 Sudeste 11 Oeste 0 -- -- 98
2018-05-16 05:00:00 11.8 7 Sudoeste 13 Sudoeste 0 -- -- 96
2018-05-16 04:00:00 11.5 7 Sudoeste 14 Sudoeste 0 -- -- 95
2018-05-16 03:00:00 12 3 Norte 8 Norte 0 -- -- 92
2018-05-16 02:00:00 13 5 Sudoeste 14 Sudoeste 0 -- -- 86
2018-05-16 01:00:00 15.1 3 Oeste 18 Oeste 0 -- -- 77
2018-05-16 00:00:00 14.5 6 Oeste 13 Sudoeste 0 -- -- 82
2018-05-15 23:00:00 14.2 5 Noroeste 10 Noroeste 0 -- -- 83
2018-05-15 22:00:00 15.4 5 Sudoeste 9 Sur 0 -- -- 78
2018-05-15 21:00:00 16.8 3 Sudoeste 17 Noroeste 0 -- -- 73
2018-05-15 20:00:00 19.3 13 Noroeste 27 Norte 0 -- -- 55
2018-05-15 19:00:00 20.8 11 Norte 23 Norte 0 -- -- 53
2018-05-15 18:00:00 21.4 17 Norte 28 Norte 0 -- -- 52
2018-05-15 17:00:00 20.2 12 Noroeste 27 Noroeste 0 -- -- 53
2018-05-15 16:00:00 19.8 4 Sudeste 11 Noroeste 0 -- -- 71
2018-05-15 15:00:00 18.1 5 Oeste 14 Sur 0 -- -- 65
2018-05-15 14:00:00 17.4 5 Sur 12 Sur 0 -- -- 78
2018-05-15 13:00:00 16.3 4 Sur 14 Sudeste 0 -- -- 79
2018-05-15 12:00:00 16.7 2 Noroeste 9 Sudoeste 0 -- -- 74
2018-05-15 11:00:00 15.5 2 Norte 8 Este 0 -- -- 80
2018-05-15 10:00:00 12.5 5 Oeste 10 Oeste 0 -- -- 91
2018-05-15 09:00:00 11.5 0 Calma 5 Oeste 0 -- -- 93
2018-05-15 08:00:00 11.1 3 Noroeste 9 Sudoeste 0 -- -- 94
2018-05-15 07:00:00 10.7 2 Sudoeste 8 Nordeste 0.2 -- -- 95
2018-05-15 06:00:00 10.9 3 Sudeste 9 Sur 0 -- -- 93
2018-05-15 05:00:00 10.9 0 Calma 9 Sudoeste 0 -- -- 95
2018-05-15 04:00:00 11.1 3 Sudeste 8 Sudeste 0 -- -- 92
2018-05-15 03:00:00 11.1 4 Oeste 13 Sudoeste 0 -- -- 91
2018-05-15 02:00:00 11.2 4 Noroeste 10 Sudoeste 0 -- -- 91
2018-05-15 01:00:00 11.4 3 Norte 8 Sudoeste 0 -- -- 88
2018-05-15 00:00:00 11.3 4 Sudoeste 17 Sur 0 -- -- 92
2018-05-14 23:00:00 11.5 9 Sudoeste 17 Sudoeste 0 -- -- 89
2018-05-14 22:00:00 11.5 8 Oeste 16 Sudoeste 0 -- -- 91
2018-05-14 21:00:00 12 8 Sudoeste 29 Noroeste 0 -- -- 83
2018-05-14 20:00:00 11.8 11 Noroeste 25 Noroeste 0 -- -- 76
2018-05-14 19:00:00 12 0 Calma 8 Noroeste 0 -- -- 95
2018-05-14 18:00:00 11.9 3 Sudoeste 11 Sur 0 -- -- 95
2018-05-14 17:00:00 12 10 Sudeste 17 Sudeste 0 -- -- 95
2018-05-14 16:00:00 11.4 5 Sudeste 33 Nordeste 7.6 -- -- 96
2018-05-14 15:00:00 16.4 6 Sudeste 23 Sudeste 0 -- -- 66
2018-05-14 14:00:00 18.3 8 Sur 20 Sudoeste 0 -- -- 51
2018-05-14 13:00:00 18.3 8 Sudoeste 18 Sur 0 -- -- 48
2018-05-14 12:00:00 16.4 2 Norte 13 Este 0 -- -- 57
2018-05-14 11:00:00 15.4 3 Sur 10 Sudeste 0 -- -- 65
2018-05-14 10:00:00 13.9 3 Noroeste 10 Oeste 0 -- -- 70
2018-05-14 09:00:00 11.1 5 Oeste 15 Oeste 0 -- -- 87
2018-05-14 08:00:00 7.4 5 Sudoeste 9 Oeste 0 -- -- 97
2018-05-14 07:00:00 6.7 6 Sudoeste 14 Sudoeste 0 -- -- 96
2018-05-14 06:00:00 7.3 4 Oeste 10 Oeste 0 -- -- 88
2018-05-14 05:00:00 8.2 5 Sudoeste 11 Sudoeste 0 -- -- 93
2018-05-14 04:00:00 8.8 4 Oeste 9 Sudoeste 0 -- -- 94
2018-05-14 03:00:00 9.1 5 Sudoeste 12 Oeste 0 -- -- 92
2018-05-14 02:00:00 9.3 6 Oeste 13 Oeste 0 -- -- 83
2018-05-14 01:00:00 9.8 2 Oeste 10 Noroeste 0 -- -- 86
2018-05-11 20:00:00 -- -- -- -- -- -- -- -- --
2018-05-11 19:00:00 21 8 Este 23 Este 0 -- -- 75
2018-05-11 18:00:00 21.9 12 Este 27 Este 0 -- -- 70
2018-05-11 17:00:00 22.5 14 Este 27 Este 0 -- -- 70
2018-05-11 16:00:00 24.2 8 Este 22 Este 0 -- -- 67
2018-05-11 15:00:00 23.8 10 Este 26 Este 0 -- -- 60
2018-05-11 14:00:00 22.5 12 Este 23 Este 0 -- -- 66
2018-05-11 13:00:00 21.8 9 Este 18 Este 0 -- -- 71
2018-05-11 12:00:00 21.9 6 Este 15 Este 0 -- -- 70
2018-05-11 11:00:00 21.2 6 Sudeste 13 Sudeste 0 -- -- 69
2018-05-11 10:00:00 20 4 Sudeste 9 Sudeste 0 -- -- 72
2018-05-11 09:00:00 17.6 4 Sudoeste 10 Sudoeste 0 -- -- 80
2018-05-11 08:00:00 15.3 2 Sudoeste 6 Sudoeste 0 -- -- 92
2018-05-11 07:00:00 15.1 0 Calma 7 Sur 0 -- -- 92
2018-05-11 06:00:00 15.3 0 Calma 4 Norte 0 -- -- 91
2018-05-11 05:00:00 15.4 2 Norte 11 Oeste 0 -- -- 90
2018-05-11 04:00:00 15.7 4 Oeste 13 Sudoeste 0 -- -- 88
2018-05-11 03:00:00 16.5 7 Sudoeste 19 Noroeste 0 -- -- 78
2018-05-11 02:00:00 17.2 8 Oeste 20 Noroeste 0 -- -- 60
2018-05-11 01:00:00 17.4 7 Oeste 20 Noroeste 0 -- -- 59
2018-05-11 00:00:00 17.4 6 Norte 16 Noroeste 0 -- -- 58
2018-05-10 23:00:00 17.9 10 Norte 22 Noroeste 0 -- -- 54
2018-05-10 22:00:00 17.8 9 Noroeste 23 Norte 0 -- -- 53
2018-05-10 21:00:00 18.4 10 Norte 27 Noroeste 0 -- -- 52
2018-05-10 20:00:00 19.9 12 Noroeste 26 Noroeste 0 -- -- 49
2018-05-10 19:00:00 20 5 Oeste 30 Noroeste 0 -- -- 62
2018-05-10 18:00:00 20.6 16 Norte 34 Norte 0 -- -- 47
2018-05-10 17:00:00 21 13 Noroeste 29 Noroeste 0 -- -- 47
2018-05-10 16:00:00 21 13 Noroeste 33 Norte 0 -- -- 47
2018-05-10 15:00:00 21.7 8 Norte 26 Noroeste 0 -- -- 43
2018-05-10 14:00:00 20.9 14 Norte 28 Norte 0 -- -- 47
2018-05-10 13:00:00 20.6 14 Noroeste 38 Noroeste 0 -- -- 46
2018-05-10 12:00:00 20.3 16 Noroeste 27 Norte 0 -- -- 48
2018-05-10 11:00:00 19 11 Norte 22 Noroeste 0 -- -- 54
2018-05-10 10:00:00 19.4 11 Noroeste 23 Noroeste 0 -- -- 51
2018-05-10 09:00:00 16.9 10 Noroeste 29 Noroeste 0 -- -- 61
2018-05-10 08:00:00 16.2 16 Noroeste 29 Norte 0 -- -- 63
2018-05-10 07:00:00 16.8 18 Noroeste 42 Noroeste 0 -- -- 61
2018-05-10 06:00:00 17.4 20 Noroeste 46 Noroeste 0 -- -- 59
2018-05-10 05:00:00 17.1 21 Noroeste 44 Norte 0 -- -- 63
2018-05-10 04:00:00 15.9 13 Noroeste 24 Noroeste 0 -- -- 80
2018-05-10 03:00:00 13.3 5 Sudoeste 10 Sudoeste 0 -- -- 99
2018-05-10 02:00:00 14 0 Calma 9 Sudoeste 0 -- -- 98
2018-05-10 01:00:00 15 5 Sudoeste 8 Sudeste 0 -- -- 100
2018-05-10 00:00:00 15.1 4 Sudeste 7 Sudeste 0 -- -- 99
2018-05-09 23:00:00 15.3 4 Nordeste 7 Este 0 -- -- 96
2018-05-09 22:00:00 16.8 0 Calma -- -- 0 -- -- 93
2018-05-09 21:00:00 18.3 0 Calma 8 Este 0 -- -- 86
2018-05-09 20:00:00 21.1 4 Sudeste 6 Sudeste 0 -- -- 75
2018-05-09 19:00:00 20.9 0 Calma 8 Nordeste 0 -- -- 74
2018-05-09 18:00:00 19.1 4 Este 9 Sudeste 0 -- -- 85
2018-05-09 17:00:00 18.2 2 Este 14 Sudeste 0 -- -- 88
2018-05-09 16:00:00 19.7 9 Sudeste 16 Sudeste 0 -- -- 82
2018-05-09 15:00:00 20 9 Sudeste 21 Este 0 -- -- 82
2018-05-09 14:00:00 22.7 8 Norte 34 Noroeste 0 -- -- 54
2018-05-09 13:00:00 23 12 Noroeste 31 Noroeste 0 -- -- 50
2018-05-09 12:00:00 22 14 Noroeste 33 Noroeste 0 -- -- 52
2018-05-09 11:00:00 20.2 13 Noroeste 24 Oeste 0 -- -- 59
2018-05-09 10:00:00 18.3 13 Noroeste 32 Noroeste 0 -- -- 65
2018-05-09 09:00:00 18.9 18 Noroeste 35 Noroeste 0 -- -- 64
2018-05-09 08:00:00 18.4 15 Noroeste 35 Noroeste 0 -- -- 67
2018-05-09 07:00:00 17.7 8 Noroeste 23 Noroeste 0 -- -- 71
2018-05-09 06:00:00 17.9 9 Oeste 27 Noroeste 0 -- -- 73
2018-05-09 05:00:00 18.5 14 Noroeste 25 Noroeste 0 -- -- 69
2018-05-09 04:00:00 17.6 8 Oeste 20 Oeste 0 -- -- 77
2018-05-09 03:00:00 15.8 8 Oeste 14 Sudoeste 0 -- -- 96
2018-05-09 02:00:00 16.3 6 Oeste 18 Sudoeste 0 -- -- 95
2018-05-09 01:00:00 16.3 8 Sudoeste 17 Sudoeste 0 -- -- 91
2018-05-09 00:00:00 16.8 4 Norte 10 Oeste 0 -- -- 82
2018-05-08 23:00:00 18.1 5 Noroeste 15 Norte 0 -- -- 78
2018-05-08 22:00:00 17.1 5 Sudeste 11 Sudeste 0 -- -- 90
2018-05-08 21:00:00 18.8 3 Este 8 Este 0 -- -- 83
2018-05-08 20:00:00 20.5 3 Sudeste 10 Este 0 -- -- 74
2018-05-08 19:00:00 21.3 5 Sudeste 11 Nordeste 0 -- -- 75
2018-05-08 18:00:00 20.6 6 Este 10 Este 0 -- -- 75
2018-05-08 17:00:00 21.2 7 Sudeste 18 Sudeste 0 -- -- 74
2018-05-08 16:00:00 20.4 10 Sudeste 21 Sudeste 0 -- -- 78
2018-05-08 15:00:00 21.6 12 Sudeste 26 Sudeste 0 -- -- 71
2018-05-08 14:00:00 23.6 13 Sudeste 26 Sudeste 0 -- -- 70
2018-05-08 13:00:00 23.9 11 Sudeste 24 Este 0 -- -- 68
2018-05-08 12:00:00 24.1 11 Sudeste 24 Sudeste 0 -- -- 68
2018-05-08 11:00:00 22.9 4 Sur 12 Sudoeste 0 -- -- 69
2018-05-08 10:00:00 20.3 3 Noroeste 9 Noroeste 0 -- -- 83
2018-05-08 09:00:00 18.1 4 Noroeste 11 Noroeste 0 -- -- 91
2018-05-08 08:00:00 16.1 4 Noroeste 6 Noroeste 0 -- -- 100
2018-05-08 07:00:00 14.2 0 Calma 5 Sudoeste 0 -- -- 100
2018-05-08 06:00:00 13.9 2 Noroeste 5 Noroeste 0 -- -- 100
2018-05-08 05:00:00 14.1 3 Sudoeste 8 Sur 0 -- -- 100
2018-05-08 04:00:00 14.3 3 Sur 8 Sudoeste 0 -- -- 100
2018-05-08 03:00:00 14.4 0 Calma 8 Sudoeste 0 -- -- 99
2018-05-08 02:00:00 14.9 5 Sudoeste 9 Oeste 0 -- -- 99
2018-05-08 01:00:00 15.2 5 Sudoeste 9 Sudoeste 0 -- -- 99
2018-05-08 00:00:00 15.5 3 Oeste 6 Oeste 0 -- -- 98
2018-05-07 23:00:00 15.8 5 Oeste 14 Oeste 0 -- -- 97
2018-05-07 22:00:00 16.4 5 Sudoeste 13 Norte 0 -- -- 97
2018-05-07 21:00:00 17.1 3 Oeste 13 Sudoeste 0 -- -- 92
2018-05-07 20:00:00 18.4 5 Oeste 14 Oeste 0 -- -- 87
2018-05-07 19:00:00 20.1 5 Oeste 16 Oeste 0 -- -- 79
2018-05-07 18:00:00 23 6 Sudeste 24 Sudeste 0 -- -- 70
2018-05-07 17:00:00 22.4 7 Este 26 Sudeste 0 -- -- 72
2018-05-07 16:00:00 23.8 8 Este 20 Sudeste 0 -- -- 69
2018-05-07 15:00:00 24.3 9 Este 20 Sudeste 0 -- -- 70
2018-05-07 14:00:00 23.9 6 Este 18 Sudeste 0 -- -- 73
2018-05-07 13:00:00 23.6 8 Sudeste 18 Este 0 -- -- 71
2018-05-07 12:00:00 23.1 2 Sur 8 Sudoeste 0 -- -- 72
2018-05-07 11:00:00 20 2 Oeste 5 Oeste 0 -- -- 85
2018-05-07 10:00:00 19.1 0 Calma 7 Oeste 0 -- -- 92
2018-05-07 09:00:00 17.6 3 Oeste 8 Oeste 0 -- -- 100
2018-05-07 08:00:00 16.1 4 Oeste 8 Oeste 0 -- -- 100
2018-05-07 07:00:00 15.5 2 Oeste 7 Norte 0 -- -- 100
2018-05-07 06:00:00 15.6 4 Noroeste 6 Oeste 0.2 -- -- 100
2018-05-07 05:00:00 15.7 2 Nordeste 9 Sur 0 -- -- 100
2018-05-07 04:00:00 15.6 2 Sudoeste 6 Sudoeste 0 -- -- 100
2018-05-07 03:00:00 15.4 3 Sudoeste 6 Sur 0 -- -- 100
2018-05-07 02:00:00 15.2 0 Calma 6 Sudoeste 0 -- -- 100
2018-05-07 01:00:00 15.5 0 Calma 9 Noroeste 0 -- -- 100
2018-05-07 00:00:00 15.6 7 Noroeste 13 Oeste 0.6 -- -- 100
2018-05-06 23:00:00 15.8 2 Oeste 8 Sudeste 1 -- -- 98
2018-05-06 22:00:00 16.4 4 Este 13 Este 1.4 -- -- 96
2018-05-06 21:00:00 17.3 4 Este 15 Sudeste 0.2 -- -- 89
2018-05-06 20:00:00 18.4 11 Sudeste 20 Sudeste 0 -- -- 79
2018-05-06 19:00:00 19.5 10 Sudeste 17 Sudeste 0 -- -- 76
2018-05-06 18:00:00 21.3 9 Sudeste 16 Sudeste 0 -- -- 74
2018-05-06 17:00:00 23.4 10 Sudeste 19 Sudeste 0 -- -- 67
2018-05-06 16:00:00 24.3 7 Sudeste 13 Este 0 -- -- 69
2018-05-06 15:00:00 23.5 2 Oeste 9 Sur 0 -- -- 65
2018-05-06 14:00:00 21.5 4 Oeste 16 Oeste 0 -- -- 76
2018-05-06 13:00:00 19.6 7 Oeste 16 Oeste 0 -- -- 84
2018-05-06 12:00:00 17.5 3 Oeste 11 Oeste 0 -- -- 93
2018-05-06 11:00:00 15.6 5 Oeste 10 Oeste 0.6 -- -- 100
2018-05-06 10:00:00 14.8 5 Sur 12 Oeste 1 -- -- 100
2018-05-06 09:00:00 14.7 3 Oeste 17 Oeste 0.4 -- -- 100
2018-05-06 08:00:00 14.5 5 Sudoeste 9 Nordeste 1.6 -- -- 100
2018-05-06 07:00:00 14 5 Este 19 Sudeste 1.8 -- -- 99
2018-05-06 06:00:00 13.3 2 Noroeste 6 Oeste 0 -- -- 94
2018-05-06 05:00:00 12.6 4 Oeste 10 Oeste 0 -- -- 94
2018-05-06 04:00:00 11.9 3 Oeste 8 Oeste 0 -- -- 97
2018-05-06 03:00:00 11.7 4 Oeste 7 Oeste 0 -- -- 97
2018-05-06 02:00:00 12.1 4 Noroeste 9 Noroeste 0 -- -- 98
2018-05-06 01:00:00 12.7 0 Calma 5 Este 0 -- -- 94
2018-05-06 00:00:00 13.7 4 Este 6 Este 0 -- -- 93
2018-05-05 23:00:00 15.3 0 Calma 6 Sudoeste 0 -- -- 84
2018-05-05 22:00:00 16.7 2 Sur 8 Sudoeste 0 -- -- 78
2018-05-05 21:00:00 18.9 4 Sudoeste 7 Nordeste 0 -- -- 71
2018-05-05 20:00:00 21.3 4 Nordeste 13 Este 0 -- -- 66
2018-05-05 19:00:00 22 4 Norte 17 Nordeste 0 -- -- 59
2018-05-05 18:00:00 23.4 6 Norte 19 Este 0 -- -- 56
2018-05-05 17:00:00 22 8 Nordeste 12 Este 0 -- -- 61
2018-05-05 16:00:00 20.8 0 Calma 16 Nordeste 0.2 -- -- 67
2018-05-05 15:00:00 22.4 9 Nordeste 22 Nordeste 0 -- -- 56
2018-05-05 14:00:00 23 10 Nordeste 18 Noroeste 0 -- -- 56
2018-05-05 13:00:00 20.3 4 Norte 18 Noroeste 0 -- -- 68
2018-05-05 12:00:00 18.2 7 Noroeste 25 Noroeste 0.2 -- -- 77
2018-05-05 11:00:00 18.5 13 Noroeste 41 Norte 0 -- -- 63
2018-05-05 10:00:00 18 18 Noroeste 37 Noroeste 0 -- -- 63
2018-05-05 09:00:00 18.7 17 Norte 34 Noroeste 0 -- -- 57
2018-05-05 08:00:00 18.2 14 Noroeste 37 Noroeste 0 -- -- 59
2018-05-05 07:00:00 18.5 21 Noroeste 38 Noroeste 0 -- -- 56
2018-05-05 06:00:00 18.6 16 Noroeste 33 Noroeste 0 -- -- 56
2018-05-05 05:00:00 18.5 17 Noroeste 30 Noroeste 0 -- -- 56
2018-05-05 04:00:00 18.3 17 Noroeste 34 Noroeste 0 -- -- 57
2018-05-05 03:00:00 18.6 18 Noroeste 34 Noroeste 0 -- -- 56
2018-05-05 02:00:00 18.6 17 Noroeste 35 Noroeste 0 -- -- 56
2018-05-05 01:00:00 18.5 20 Noroeste 42 Noroeste 0 -- -- 56
2018-05-05 00:00:00 18.7 18 Noroeste 37 Noroeste 0 -- -- 54
2018-05-04 23:00:00 18.3 9 Norte 25 Noroeste 0 -- -- 54
2018-05-04 22:00:00 18.4 14 Noroeste 37 Norte 0 -- -- 53
2018-05-04 21:00:00 18.3 19 Noroeste 39 Noroeste 0 -- -- 53
2018-05-04 20:00:00 18.2 14 Norte 36 Noroeste 0 -- -- 53
2018-05-04 19:00:00 18.8 19 Norte 45 Noroeste 0 -- -- 50
2018-05-04 18:00:00 19.7 20 Noroeste 49 Norte 0 -- -- 49
2018-05-04 17:00:00 20.6 26 Noroeste 48 Norte 0 -- -- 46
2018-05-04 16:00:00 21.9 24 Norte 57 Norte 0 -- -- 45
2018-05-04 15:00:00 20.6 26 Norte 43 Norte 0 -- -- 47
2018-05-04 14:00:00 19.6 16 Noroeste 42 Norte 0 -- -- 49
2018-05-04 13:00:00 18.8 23 Noroeste 43 Noroeste 0 -- -- 49
2018-05-04 12:00:00 17.7 20 Noroeste 47 Noroeste 0 -- -- 52
2018-05-04 11:00:00 17.4 20 Noroeste 45 Noroeste 0 -- -- 51
2018-05-04 10:00:00 17.7 27 Noroeste 48 Noroeste 0 -- -- 48
2018-05-04 09:00:00 17.3 26 Noroeste 58 Norte 0 -- -- 47
2018-05-04 08:00:00 17.1 24 Noroeste 55 Norte 0 -- -- 46
2018-05-04 07:00:00 16.4 31 Noroeste 58 Norte 0 -- -- 47
2018-05-04 06:00:00 16.3 34 Noroeste 65 Noroeste 0 -- -- 49
2018-05-04 05:00:00 15.7 30 Noroeste 58 Noroeste 0 -- -- 52
2018-05-04 04:00:00 15.9 26 Noroeste 49 Norte 0 -- -- 52
2018-05-04 03:00:00 16.1 22 Noroeste 52 Norte 0 -- -- 54
2018-05-04 02:00:00 16.5 29 Noroeste 60 Noroeste 0 -- -- 55
2018-05-04 01:00:00 16.2 30 Noroeste 53 Noroeste 0 -- -- 57
2018-05-04 00:00:00 14.9 21 Noroeste 53 Noroeste 0.4 -- -- 68
2018-05-03 23:00:00 16.3 29 Noroeste 57 Noroeste 0 -- -- 60
2018-05-03 22:00:00 17 31 Noroeste 70 Noroeste 0 -- -- 56
2018-05-03 21:00:00 17.3 29 Noroeste 68 Noroeste 0 -- -- 53
2018-05-03 20:00:00 17.7 31 Noroeste 55 Noroeste 0 -- -- 49
2018-05-03 19:00:00 17.8 26 Noroeste 56 Norte 0 -- -- 49
2018-05-03 18:00:00 18.2 33 Noroeste 60 Noroeste 0 -- -- 48
2018-05-03 17:00:00 18.5 31 Noroeste 66 Noroeste 0 -- -- 46
2018-05-03 16:00:00 18.9 30 Noroeste 66 Noroeste 0 -- -- 44
2018-05-03 15:00:00 19.6 30 Noroeste 52 Noroeste 0 -- -- 43
2018-05-03 14:00:00 20 30 Noroeste 54 Norte 0 -- -- 43
2018-05-03 13:00:00 19.4 26 Noroeste 60 Noroeste 0 -- -- 50
2018-05-03 12:00:00 18.1 33 Noroeste 63 Noroeste 0 -- -- 53
2018-05-03 11:00:00 17.3 29 Noroeste 52 Oeste 0 -- -- 55
2018-05-03 10:00:00 16.7 25 Noroeste 49 Noroeste 0 -- -- 57
2018-05-03 09:00:00 15.5 24 Noroeste 46 Norte 0 -- -- 60
2018-05-03 08:00:00 15 24 Noroeste 48 Noroeste 0 -- -- 61
2018-05-03 07:00:00 14.7 27 Noroeste 58 Noroeste 0 -- -- 60
2018-05-03 06:00:00 14.4 21 Noroeste 51 Noroeste 0 -- -- 59
2018-05-03 05:00:00 13.4 9 Noroeste 27 Noroeste 0 -- -- 60
2018-05-03 04:00:00 13.8 18 Noroeste 40 Norte 0 -- -- 59
2018-05-03 03:00:00 14.3 21 Noroeste 51 Noroeste 0 -- -- 57
2018-05-03 02:00:00 14.9 20 Noroeste 44 Noroeste 0 -- -- 53
2018-05-03 01:00:00 15.3 25 Norte 48 Noroeste 0 -- -- 51
2018-05-03 00:00:00 15.9 24 Noroeste 43 Norte 0 -- -- 49
2018-05-02 23:00:00 16.3 23 Noroeste 45 Noroeste 0 -- -- 48
2018-05-02 22:00:00 17.1 25 Noroeste 45 Noroeste 0 -- -- 43
2018-05-02 21:00:00 17.4 13 Norte 42 Noroeste 0 -- -- 43
2018-05-02 20:00:00 19.3 19 Norte 38 Norte 0 -- -- 38
2018-05-02 19:00:00 21.2 15 Noroeste 41 Noroeste 0 -- -- 34
2018-05-02 18:00:00 21.9 22 Norte 43 Norte 0 -- -- 29
2018-05-02 17:00:00 22.7 21 Norte 43 Norte 0 -- -- 30
2018-05-02 16:00:00 22.4 24 Norte 44 Norte 0 -- -- 31
2018-05-02 15:00:00 22.1 19 Norte 43 Norte 0 -- -- 32
2018-05-02 14:00:00 21.1 21 Norte 49 Noroeste 0 -- -- 31
2018-05-02 13:00:00 20.2 20 Norte 44 Norte 0 -- -- 31
2018-05-02 12:00:00 18.9 18 Norte 32 Norte 0 -- -- 35
2018-05-02 11:00:00 17.1 15 Noroeste 31 Noroeste 0 -- -- 44
2018-05-02 10:00:00 15.2 13 Noroeste 23 Noroeste 0 -- -- 54
2018-05-02 09:00:00 13.4 9 Noroeste 20 Noroeste 0 -- -- 57
2018-05-02 08:00:00 10.6 7 Noroeste 18 Noroeste 0 -- -- 67
2018-05-02 07:00:00 6.9 6 Oeste 15 Oeste 0 -- -- 76
2018-05-02 06:00:00 7.4 6 Oeste 15 Oeste 0 -- -- 74
2018-05-02 05:00:00 10 9 Oeste 21 Noroeste 0 -- -- 64
2018-05-02 04:00:00 11.2 10 Noroeste 34 Noroeste 0 -- -- 58
2018-05-02 03:00:00 11.7 11 Noroeste 20 Noroeste 0 -- -- 54
2018-05-02 02:00:00 11.3 8 Noroeste 23 Norte 0 -- -- 58
2018-05-02 01:00:00 11.7 9 Noroeste 25 Noroeste 0 -- -- 57
2018-05-02 00:00:00 12.7 16 Noroeste 36 Norte 0 -- -- 53
2018-05-01 23:00:00 12.5 15 Norte 36 Noroeste 0 -- -- 54
2018-05-01 22:00:00 12.3 14 Norte 32 Noroeste 0 -- -- 56
2018-05-01 21:00:00 12.7 8 Norte 32 Noroeste 0 -- -- 54
2018-05-01 20:00:00 15 12 Noroeste 33 Noroeste 0 -- -- 47
2018-05-01 19:00:00 16 15 Norte 29 Noroeste 0 -- -- 43
2018-05-01 18:00:00 17.8 19 Norte 33 Norte 0 -- -- 42
2018-05-01 17:00:00 18.6 17 Norte 36 Norte 0 -- -- 38
2018-05-01 16:00:00 17.3 14 Norte 34 Norte 0 -- -- 44
2018-05-01 15:00:00 17.8 16 Norte 30 Norte 0 -- -- 45
2018-05-01 14:00:00 16.3 14 Norte 36 Noroeste 0 -- -- 47
2018-05-01 13:00:00 15.2 20 Noroeste 39 Noroeste 0 -- -- 46
2018-05-01 12:00:00 15 17 Noroeste 40 Noroeste 0 -- -- 51
2018-05-01 11:00:00 14.4 18 Noroeste 33 Norte 0 -- -- 55
2018-05-01 10:00:00 13.5 11 Noroeste 28 Noroeste 0 -- -- 61
2018-05-01 09:00:00 11.4 6 Oeste 13 Noroeste 0 -- -- 69
2018-05-01 08:00:00 9.7 4 Noroeste 13 Noroeste 0 -- -- 75
2018-05-01 07:00:00 8.3 4 Oeste 9 Oeste 0 -- -- 81
2018-05-01 06:00:00 8.3 0 Calma 8 Norte 0 -- -- 85
2018-05-01 05:00:00 9.1 4 Oeste 13 Oeste 0 -- -- 75
2018-05-01 04:00:00 8.7 2 Oeste 8 Sudoeste 0 -- -- 82
2018-05-01 03:00:00 9.7 0 Calma 8 Norte 0 -- -- 78
2018-05-01 02:00:00 10.4 8 Norte 23 Norte 0 -- -- 69
2018-05-01 01:00:00 11 13 Noroeste 31 Norte 0 -- -- 67
2018-05-01 00:00:00 11.5 16 Noroeste 34 Noroeste 0 -- -- 72
2018-04-30 23:00:00 12.3 15 Noroeste 35 Noroeste 0 -- -- 70
2018-04-30 22:00:00 13.9 15 Noroeste 33 Noroeste 0 -- -- 70
2018-04-30 21:00:00 15.3 4 Oeste 22 Sudoeste 0 -- -- 58
2018-04-30 20:00:00 16.3 12 Sur 27 Sur 0 -- -- 55
2018-04-30 19:00:00 18 12 Sur 32 Sur 0 -- -- 52
2018-04-30 18:00:00 20.1 14 Sur 33 Sudeste 0 -- -- 45
2018-04-30 17:00:00 18.8 17 Sudeste 32 Sudeste 0 -- -- 54
2018-04-30 16:00:00 18.8 14 Sudeste 30 Este 0 -- -- 60
2018-04-30 15:00:00 16.6 11 Este 28 Sudeste 0 -- -- 74
2018-04-30 14:00:00 17.3 13 Este 27 Sudeste 0 -- -- 68
2018-04-30 13:00:00 17.5 11 Este 22 Sudeste 0 -- -- 62
2018-04-30 12:00:00 17.9 9 Este 17 Sudeste 0 -- -- 59
2018-04-30 11:00:00 17.3 6 Sudeste 14 Sudeste 0 -- -- 66
2018-04-30 10:00:00 14.1 2 Este 7 Sudeste 0 -- -- 78
2018-04-30 09:00:00 10.1 4 Sudoeste 9 Oeste 0 -- -- 93
2018-04-30 08:00:00 6.9 5 Sudoeste 10 Sudoeste 0 -- -- 100
2018-04-30 07:00:00 5 3 Sudoeste 9 Oeste 0 -- -- 100
2018-04-30 06:00:00 5.1 6 Oeste 10 Oeste 0 -- -- 100
2018-04-30 05:00:00 4.9 5 Noroeste 8 Oeste 0 -- -- 100
2018-04-30 04:00:00 5.9 0 Calma 7 Sudoeste 0 -- -- 100
2018-04-30 03:00:00 6.6 5 Oeste 8 Sudoeste 0 -- -- 99
2018-04-30 02:00:00 7.1 4 Oeste 9 Noroeste 0 -- -- 98
2018-04-30 01:00:00 8.3 4 Oeste 8 Oeste 0 -- -- 95
2018-04-30 00:00:00 9.3 0 Calma 10 Noroeste 0 -- -- 92
2018-04-29 23:00:00 10.1 5 Noroeste 9 Noroeste 0 -- -- 91
2018-04-29 22:00:00 11.5 2 Sudoeste 6 Sudoeste 0 -- -- 86
2018-04-29 21:00:00 12.6 2 Sur 15 Oeste 0 -- -- 80
2018-04-29 20:00:00 14.3 8 Oeste 33 Sudoeste 0 -- -- 61
2018-04-29 19:00:00 14.9 8 Sudoeste 28 Sudoeste 0 -- -- 63
2018-04-29 18:00:00 15 12 Sudoeste 36 Sudoeste 0 -- -- 60
2018-04-29 17:00:00 16.3 16 Sudoeste 48 Sudoeste 0.2 -- -- 61
2018-04-29 16:00:00 20.5 21 Sur 46 Sur 0 -- -- 53
2018-04-29 15:00:00 19.6 17 Sur 44 Sudeste 0.4 -- -- 81
2018-04-29 14:00:00 17.7 21 Sudeste 39 Sudeste 0 -- -- 90
2018-04-29 13:00:00 18.1 16 Sudeste 38 Sudeste 0 -- -- 90
2018-04-29 12:00:00 16.1 12 Sudeste 24 Sudeste 0.2 -- -- 99
2018-04-29 11:00:00 15.2 3 Nordeste 23 Sudoeste 2.4 -- -- 99
2018-04-29 10:00:00 15.8 12 Sur 25 Sudeste 0.2 -- -- 95
2018-04-29 09:00:00 16 7 Sur 13 Sur 0 -- -- 96
2018-04-29 08:00:00 14 4 Sur 15 Sudoeste 0 -- -- 100
2018-04-29 07:00:00 13 4 Sudoeste 8 Sudoeste 0 -- -- 100
2018-04-29 06:00:00 13.5 7 Sur 15 Sur 0 -- -- 100
2018-04-29 05:00:00 14.4 6 Sur 16 Sur 0 -- -- 100
2018-04-29 04:00:00 14.7 8 Sudeste 17 Sudeste 0 -- -- 100
2018-04-29 03:00:00 15 10 Sudeste 22 Sudeste 0 -- -- 99
2018-04-29 02:00:00 15 10 Sudeste 20 Sudeste 0 -- -- 99
2018-04-29 01:00:00 15 6 Sudeste 14 Sudeste 0 -- -- 97
2018-04-29 00:00:00 15.4 8 Sudeste 21 Sudeste 0 -- -- 94
2018-04-28 23:00:00 15.8 13 Sudeste 23 Sudeste 0 -- -- 95
2018-04-28 22:00:00 16.3 13 Sudeste 25 Este 0 -- -- 94
2018-04-28 21:00:00 16.8 8 Este 24 Sudeste 0 -- -- 91
2018-04-28 20:00:00 18.2 14 Sudeste 32 Sudeste 0 -- -- 84
2018-04-28 19:00:00 18.8 19 Sudeste 39 Sudeste 0 -- -- 84
2018-04-28 18:00:00 20 21 Sudeste 39 Sudeste 0 -- -- 78
2018-04-28 17:00:00 21 21 Sudeste 38 Este 0 -- -- 71
2018-04-28 16:00:00 22 20 Sudeste 43 Sudeste 0 -- -- 66
2018-04-28 15:00:00 21.5 17 Sudeste 39 Sudeste 0 -- -- 69
2018-04-28 14:00:00 21.7 21 Sudeste 37 Sudeste 0 -- -- 65
2018-04-28 13:00:00 21.9 19 Sudeste 33 Sudeste 0 -- -- 63
2018-04-28 12:00:00 21.6 10 Este 21 Sudeste 0 -- -- 72
2018-04-28 11:00:00 20.6 7 Este 14 Sudeste 0 -- -- 69
2018-04-28 10:00:00 18.3 3 Sudoeste 7 Sur 0 -- -- 79
2018-04-28 09:00:00 14.8 3 Oeste 8 Oeste 0 -- -- 90
2018-04-28 08:00:00 11.6 0 Calma 4 Oeste 0 -- -- 100
2018-04-28 07:00:00 10 0 Calma 0 Calma 0 -- -- 98
2018-04-28 06:00:00 10.6 2 Oeste 8 Sudoeste 0 -- -- 97
2018-04-28 05:00:00 10.6 5 Oeste 9 Oeste 0 -- -- 98
2018-04-28 04:00:00 11.2 0 Calma 5 Norte 0 -- -- 98
2018-04-28 03:00:00 11.6 3 Norte 10 Oeste 0 -- -- 96
2018-04-28 02:00:00 11.9 3 Sudoeste 9 Sudoeste 0 -- -- 98
2018-04-28 01:00:00 12.3 0 Calma 8 Sudoeste 0 -- -- 98
2018-04-28 00:00:00 13.1 0 Calma -- -- 0 -- -- 98
2018-04-27 23:00:00 13.5 0 Calma 6 Noroeste 0 -- -- 96
2018-04-27 22:00:00 14.4 0 Calma 0 Calma 0 -- -- 93
2018-04-27 21:00:00 15.6 2 Este 7 Este 0 -- -- 91
2018-04-27 20:00:00 16.7 4 Este 10 Este 0 -- -- 85
2018-04-27 19:00:00 19.2 4 Sudeste 14 Sudeste 0 -- -- 71
2018-04-27 18:00:00 20.4 9 Sudeste 22 Este 0 -- -- 67
2018-04-27 17:00:00 20.9 12 Sudeste 23 Sudeste 0 -- -- 63
2018-04-27 16:00:00 20.9 12 Sudeste 28 Sudeste 0 -- -- 65
2018-04-27 15:00:00 20.9 14 Sudeste 30 Sudeste 0 -- -- 64
2018-04-27 14:00:00 20.7 12 Este 24 Este 0 -- -- 62
2018-04-27 13:00:00 20.7 12 Sudeste 25 Sudeste 0 -- -- 66
2018-04-27 12:00:00 20.3 11 Este 21 Sudeste 0 -- -- 59
2018-04-27 11:00:00 21.5 11 Sudeste 19 Este 0 -- -- 57
2018-04-27 10:00:00 18.8 3 Nordeste 7 Oeste 0 -- -- 54
2018-04-27 09:00:00 13.8 5 Noroeste 9 Noroeste 0 -- -- 72
2018-04-27 08:00:00 10.6 5 Noroeste 9 Oeste 0 -- -- 79
2018-04-27 07:00:00 8.7 4 Noroeste 9 Oeste 0 -- -- 84
2018-04-27 06:00:00 9 5 Oeste 7 Oeste 0 -- -- 91
2018-04-27 05:00:00 9 0 Calma -- -- 0 -- -- 87
2018-04-27 04:00:00 9.8 0 Calma 5 Oeste 0 -- -- 91
2018-04-27 03:00:00 10.3 2 Oeste 6 Nordeste 0 -- -- 80
2018-04-27 02:00:00 11.1 5 Oeste 10 Oeste 0 -- -- 75
2018-04-27 01:00:00 11.6 0 Calma 7 Sudoeste 0 -- -- 78
2018-04-27 00:00:00 13.2 0 Calma 8 Sudoeste 0 -- -- 64
2018-04-26 23:00:00 16 6 Oeste 20 Noroeste 0 -- -- 47
2018-04-26 22:00:00 17.4 12 Noroeste 27 Norte 0 -- -- 42
2018-04-26 21:00:00 17.7 13 Noroeste 29 Noroeste 0 -- -- 48
2018-04-26 20:00:00 20.2 13 Noroeste 27 Noroeste 0 -- -- 45
2018-04-26 19:00:00 22.7 12 Noroeste 26 Noroeste 0 -- -- 37
2018-04-26 18:00:00 23.8 14 Noroeste 31 Noroeste 0 -- -- 34
2018-04-26 17:00:00 24.6 15 Noroeste 32 Noroeste 0 -- -- 34
2018-04-26 16:00:00 24.5 14 Norte 28 Norte 0 -- -- 35
2018-04-26 15:00:00 24.5 14 Noroeste 34 Noroeste 0 -- -- 34
2018-04-26 14:00:00 23.4 12 Noroeste 26 Noroeste 0 -- -- 42
2018-04-26 13:00:00 22.3 10 Noroeste 20 Noroeste 0 -- -- 47
2018-04-26 12:00:00 21.1 9 Norte 26 Noroeste 0 -- -- 54
2018-04-26 11:00:00 20.3 11 Noroeste 21 Noroeste 0 -- -- 57
2018-04-26 10:00:00 19.2 8 Noroeste 18 Oeste 0 -- -- 61
2018-04-26 09:00:00 17.7 6 Norte 16 Noroeste 0 -- -- 69
2018-04-26 08:00:00 15.5 6 Noroeste 11 Noroeste 0 -- -- 77
2018-04-26 07:00:00 13.7 6 Noroeste 11 Norte 0 -- -- 84
2018-04-26 06:00:00 13.9 6 Norte 13 Noroeste 0 -- -- 84
2018-04-26 05:00:00 13.1 0 Calma 5 Noroeste 0 -- -- 91
2018-04-26 04:00:00 13.7 3 Oeste 5 Oeste 0 -- -- 90
2018-04-26 03:00:00 14.5 3 Nordeste 11 Noroeste 0 -- -- 86
2018-04-26 02:00:00 16 7 Noroeste 16 Oeste 0 -- -- 75
2018-04-26 01:00:00 15.7 4 Noroeste 11 Noroeste 0 -- -- 85
2018-04-26 00:00:00 16.4 6 Noroeste 14 Oeste 0 -- -- 84
2018-04-25 23:00:00 16.7 5 Noroeste 12 Noroeste 0 -- -- 89
2018-04-25 22:00:00 16.6 6 Norte 10 Norte 0 -- -- 92
2018-04-25 21:00:00 18.4 2 Sudoeste 8 Sudeste 0 -- -- 86
2018-04-25 20:00:00 19.7 4 Sudeste 18 Sudeste 0 -- -- 82
2018-04-25 19:00:00 21.4 9 Sudeste 22 Sudeste 0 -- -- 73
2018-04-25 18:00:00 21.6 12 Sudeste 22 Sudeste 0 -- -- 73
2018-04-25 17:00:00 22.8 13 Sudeste 23 Sudeste 0 -- -- 72
2018-04-25 16:00:00 25 12 Sudeste 21 Este 0 -- -- 68
2018-04-25 15:00:00 26.2 10 Sudeste 17 Sudeste 0 -- -- 62
2018-04-25 14:00:00 25.9 8 Sudeste 19 Este 0 -- -- 58
2018-04-25 13:00:00 24.5 12 Este 24 Este 0 -- -- 57
2018-04-25 12:00:00 23.6 13 Nordeste 28 Nordeste 0 -- -- 63
2018-04-25 11:00:00 22.8 13 Nordeste 28 Nordeste 0 -- -- 64
2018-04-25 10:00:00 19.5 5 Norte 10 Noroeste 0 -- -- 78
2018-04-25 09:00:00 16.1 5 Noroeste 14 Noroeste 0 -- -- 92
2018-04-25 08:00:00 12.5 4 Sudoeste 14 Sur 0 -- -- 100
2018-04-25 07:00:00 11.4 4 Noroeste 9 Sudoeste 0 -- -- 100
2018-04-25 06:00:00 11.8 3 Oeste 7 Norte 0 -- -- 99
2018-04-25 05:00:00 12.6 5 Noroeste 9 Noroeste 0 -- -- 99
2018-04-25 04:00:00 12.8 0 Calma 4 Noroeste 0 -- -- 97
2018-04-25 03:00:00 13.5 3 Oeste 6 Noroeste 0 -- -- 97
2018-04-25 02:00:00 14.3 4 Noroeste 5 Noroeste 0 -- -- 96
2018-04-25 01:00:00 14.7 3 Noroeste 6 Noroeste 0 -- -- 94
2018-04-25 00:00:00 15.1 3 Oeste 6 Noroeste 0 -- -- 94
2018-04-24 23:00:00 15.9 0 Calma -- -- 0 -- -- 92
2018-04-24 22:00:00 17 0 Calma 4 Este 0 -- -- 90
2018-04-24 21:00:00 18.3 3 Este 9 Este 0 -- -- 84
2018-04-24 20:00:00 20 3 Este 13 Sudeste 0 -- -- 78
2018-04-24 19:00:00 21.8 7 Sudeste 19 Este 0 -- -- 70
2018-04-24 18:00:00 22.5 9 Este 23 Sudeste 0 -- -- 67
2018-04-24 17:00:00 24.4 12 Sudeste 25 Sudeste 0 -- -- 58
2018-04-24 16:00:00 24.5 14 Sudeste 30 Sudeste 0 -- -- 59
2018-04-24 15:00:00 24.7 14 Sudeste 27 Sudeste 0 -- -- 61
2018-04-24 14:00:00 24.4 13 Sudeste 25 Sudeste 0 -- -- 64
2018-04-24 13:00:00 25.1 11 Sudeste 21 Sudeste 0 -- -- 61
2018-04-24 12:00:00 24.3 9 Sudeste 15 Sudeste 0 -- -- 67
2018-04-24 11:00:00 23.4 6 Sudeste 10 Sudeste 0 -- -- 69
2018-04-24 10:00:00 19.7 4 Oeste 8 Oeste 0 -- -- 78
2018-04-24 09:00:00 16.6 2 Sudoeste 7 Noroeste 0 -- -- 91
2018-04-24 08:00:00 13.2 0 Calma 7 Sudoeste 0 -- -- 100
2018-04-24 07:00:00 12.9 5 Sudoeste 9 Sudoeste 0 -- -- 99
2018-04-24 06:00:00 13.5 4 Sudoeste 9 Sudoeste 0 -- -- 100
2018-04-24 05:00:00 13.8 5 Sudoeste 10 Sudoeste 0 -- -- 100
2018-04-24 04:00:00 14.2 2 Sudoeste 6 Oeste 0 -- -- 98
2018-04-24 03:00:00 15.2 4 Sudoeste 6 Sudoeste 0 -- -- 98
2018-04-24 02:00:00 15.6 2 Sudoeste 6 Sudoeste 0 -- -- 97
2018-04-24 01:00:00 15.7 4 Oeste 9 Oeste 0 -- -- 96
2018-04-24 00:00:00 15.7 3 Oeste 7 Oeste 0 -- -- 95